Time;durP1;ratioP1;P1;durP2;ratioP2;P2;SDS_P1;SDS_P2;PMS_P1;PMS_P2;Temp;Humidity;BMP_temperature;BMP_pressure;BME280_temperature;BME280_humidity;BME280_pressure;Samples;Min_cycle;Max_cycle;Signal;HPM_P1;HPM_P2
2022/12/25 07:00:56;;;;;;;;;21.67;19.00;;;;;13.44;100.00;100889.97;6187569;22;46755;-61
2022/12/25 07:03:23;;;;;;;;;24.00;17.33;;;;;13.41;100.00;100891.03;6217213;22;45245;-62
2022/12/25 07:05:48;;;;;;;;;19.33;18.00;;;;;13.40;100.00;100897.31;6191470;22;45331;-62
2022/12/25 07:08:13;;;;;;;;;18.67;16.00;;;;;13.37;100.00;100895.69;6244564;22;60799;-61
2022/12/25 07:10:39;;;;;;;;;21.67;17.00;;;;;13.36;100.00;100899.34;6244954;22;47005;-61
2022/12/25 07:13:04;;;;;;;;;19.33;18.00;;;;;13.32;100.00;100883.53;6244668;22;62931;-61
2022/12/25 07:15:29;;;;;;;;;22.33;20.33;;;;;13.31;100.00;100876.47;6245493;22;55380;-61
2022/12/25 07:17:55;;;;;;;;;19.33;18.67;;;;;13.32;100.00;100860.34;6244063;22;61314;-61
2022/12/25 07:20:20;;;;;;;;;22.00;20.33;;;;;13.37;100.00;100847.59;6243673;22;46071;-61
2022/12/25 07:22:45;;;;;;;;;19.33;18.00;;;;;13.39;100.00;100832.34;6243111;22;63045;-61
2022/12/25 07:25:11;;;;;;;;;20.67;16.67;;;;;13.45;100.00;100822.22;6243376;22;45192;-61
2022/12/25 07:27:36;;;;;;;;;25.67;20.00;;;;;13.47;100.00;100818.50;6245538;22;61833;-61
2022/12/25 07:30:01;;;;;;;;;20.00;16.67;;;;;13.46;100.00;100819.47;6245228;22;45321;-61
2022/12/25 07:32:30;;;;;;;;;21.33;18.00;;;;;13.48;100.00;100803.31;6246030;22;45254;-61
2022/12/25 07:34:56;;;;;;;;;15.00;15.00;;;;;13.50;100.00;100801.44;6244438;22;45275;-61
2022/12/25 07:37:21;;;;;;;;;19.67;17.33;;;;;13.49;100.00;100791.69;6244341;22;61411;-61
2022/12/25 07:39:46;;;;;;;;;25.33;18.00;;;;;13.47;100.00;100783.78;6244539;22;70194;-61
2022/12/25 07:42:11;;;;;;;;;17.00;15.67;;;;;13.46;100.00;100773.19;6243654;22;62231;-61
2022/12/25 07:44:37;;;;;;;;;20.67;18.67;;;;;13.45;100.00;100764.31;6245150;22;60143;-61
2022/12/25 07:47:02;;;;;;;;;19.33;17.67;;;;;13.47;100.00;100777.59;6244942;22;53180;-61
2022/12/25 07:49:27;;;;;;;;;17.33;17.00;;;;;13.44;100.00;100788.44;6245364;22;62797;-61
2022/12/25 07:51:53;;;;;;;;;20.00;19.00;;;;;13.36;100.00;100791.56;6245283;22;45297;-61
2022/12/25 07:54:19;;;;;;;;;18.00;16.67;;;;;13.33;100.00;100810.47;6245202;22;58443;-61
2022/12/25 07:56:45;;;;;;;;;18.00;13.33;;;;;13.30;100.00;100824.84;6242811;22;45174;-61
2022/12/25 07:59:10;;;;;;;;;21.67;16.00;;;;;13.33;100.00;100826.50;6244848;22;46200;-63
2022/12/25 08:01:35;;;;;;;;;17.67;15.67;;;;;13.33;100.00;100815.81;6244893;22;57921;-62
2022/12/25 08:04:01;;;;;;;;;14.00;13.67;;;;;13.31;100.00;100823.91;6244645;22;58107;-62
2022/12/25 08:06:32;;;;;;;;;13.33;13.33;;;;;13.28;100.00;100837.44;6246016;22;45315;-62
2022/12/25 08:09:07;;;;;;;;;19.00;17.67;;;;;13.24;100.00;100833.25;6244374;22;46046;-62
2022/12/25 08:11:32;;;;;;;;;16.33;13.00;;;;;13.23;100.00;100842.19;6244395;22;45406;-62
2022/12/25 08:13:57;;;;;;;;;18.33;14.33;;;;;13.22;100.00;100837.84;6245021;22;45240;-62
2022/12/25 08:16:23;;;;;;;;;14.00;13.00;;;;;13.24;100.00;100844.81;6244401;22;45213;-62
2022/12/25 08:18:48;;;;;;;;;16.67;15.67;;;;;13.24;100.00;100835.91;6245131;22;45686;-62
2022/12/25 08:21:14;;;;;;;;;13.33;13.33;;;;;13.21;100.00;100828.09;6243964;22;61918;-62
2022/12/25 08:23:42;;;;;;;;;12.33;11.00;;;;;13.15;100.00;100829.31;6243481;22;45500;-62
2022/12/25 08:26:11;;;;;;;;;18.00;12.33;;;;;13.15;100.00;100818.63;6245591;22;45237;-62
2022/12/25 08:28:36;;;;;;;;;16.67;14.67;;;;;13.12;100.00;100813.47;6244753;22;45596;-62
2022/12/25 08:31:10;;;;;;;;;12.33;11.33;;;;;13.11;100.00;100818.91;6242862;22;45458;-62
2022/12/25 08:33:36;;;;;;;;;15.33;11.33;;;;;13.11;100.00;100811.75;6243489;22;45272;-62
2022/12/25 08:36:04;;;;;;;;;17.67;15.00;;;;;13.15;100.00;100807.09;6244560;22;45788;-62
2022/12/25 08:38:29;;;;;;;;;17.00;12.00;;;;;13.17;100.00;100806.06;6243829;22;47368;-61
2022/12/25 08:40:54;;;;;;;;;13.00;11.00;;;;;13.22;100.00;100811.13;6244610;22;46401;-62
2022/12/25 08:43:20;;;;;;;;;11.67;11.00;;;;;13.23;100.00;100803.00;6241671;22;58675;-61
2022/12/25 08:45:46;;;;;;;;;11.33;11.33;;;;;13.24;100.00;100794.06;6216329;22;61726;-61
2022/12/25 08:48:11;;;;;;;;;14.00;13.00;;;;;13.26;100.00;100796.63;6244359;22;46295;-62
2022/12/25 08:50:37;;;;;;;;;11.67;10.33;;;;;13.23;100.00;100803.00;6245548;22;45288;-62
2022/12/25 08:53:02;;;;;;;;;10.00;10.00;;;;;13.19;100.00;100781.91;6245616;22;54909;-60
2022/12/25 08:55:27;;;;;;;;;9.33;9.33;;;;;13.18;100.00;100815.78;6246755;22;45538;-60
2022/12/25 08:57:53;;;;;;;;;13.67;12.00;;;;;13.15;100.00;100815.94;6245987;22;46178;-62
2022/12/25 09:00:18;;;;;;;;;16.00;12.00;;;;;13.14;100.00;100805.38;6246308;22;45272;-62
2022/12/25 09:02:44;;;;;;;;;12.67;10.33;;;;;13.13;100.00;100798.31;6245533;22;45319;-62
2022/12/25 09:05:09;;;;;;;;;16.33;13.33;;;;;13.12;100.00;100797.47;6246120;22;61906;-61
2022/12/25 09:07:34;;;;;;;;;14.67;11.00;;;;;13.12;100.00;100793.94;6245313;22;53612;-61
2022/12/25 09:10:00;;;;;;;;;9.67;9.67;;;;;13.12;100.00;100796.63;6245848;22;61824;-62
2022/12/25 09:12:25;;;;;;;;;13.33;12.00;;;;;13.11;100.00;100821.59;6246455;22;45445;-62
2022/12/25 09:14:50;;;;;;;;;11.67;9.67;;;;;13.08;100.00;100820.81;6245563;22;60255;-62
2022/12/25 09:17:16;;;;;;;;;10.67;10.67;;;;;13.08;100.00;100818.13;6246933;22;49702;-62
2022/12/25 09:19:41;;;;;;;;;13.00;11.00;;;;;13.03;100.00;100808.69;6219394;22;61844;-62
2022/12/25 09:22:06;;;;;;;;;13.33;12.00;;;;;13.01;100.00;100805.25;6246411;22;45286;-62
2022/12/25 09:24:32;;;;;;;;;12.00;11.67;;;;;13.00;100.00;100809.75;6245143;22;60887;-62
2022/12/25 09:26:57;;;;;;;;;14.00;11.33;;;;;13.02;100.00;100823.88;6243494;22;68149;-62
2022/12/25 09:29:22;;;;;;;;;12.67;12.00;;;;;12.99;100.00;100816.03;6246788;22;45249;-62
2022/12/25 09:31:48;;;;;;;;;11.33;9.67;;;;;13.00;100.00;100833.78;6244844;22;56181;-62
2022/12/25 09:34:13;;;;;;;;;10.00;10.00;;;;;12.95;100.00;100827.84;6246705;22;45270;-62
2022/12/25 09:36:38;;;;;;;;;11.33;10.33;;;;;12.97;100.00;100833.09;6245670;22;57497;-62
2022/12/25 09:39:04;;;;;;;;;11.67;10.33;;;;;12.97;100.00;100836.63;6241901;22;45309;-61
2022/12/25 09:41:33;;;;;;;;;11.67;10.00;;;;;13.01;100.00;100832.81;6217172;22;45366;-61
2022/12/25 09:44:03;;;;;;;;;8.33;8.33;;;;;13.05;100.00;100834.34;6217277;22;45464;-60
2022/12/25 09:46:36;;;;;;;;;14.33;10.33;;;;;13.04;100.00;100827.28;6217650;22;46187;-62
2022/12/25 09:49:06;;;;;;;;;12.33;11.00;;;;;13.05;100.00;100813.00;6218642;22;45410;-62
2022/12/25 09:51:34;;;;;;;;;11.33;10.00;;;;;13.07;100.00;100832.47;6219244;22;45468;-62
2022/12/25 09:54:08;;;;;;;;;8.00;7.00;;;;;13.08;100.00;100842.16;6243371;22;45239;-60
2022/12/25 09:56:33;;;;;;;;;11.00;11.00;;;;;13.08;100.00;100830.66;6218131;22;46206;-62
2022/12/25 09:58:58;;;;;;;;;13.00;10.67;;;;;13.11;100.00;100826.94;6244663;22;45272;-62
2022/12/25 10:01:42;;;;;;;;;10.33;10.33;;;;;13.15;100.00;100815.94;6244555;22;59717;-62
2022/12/25 10:04:13;;;;;;;;;10.00;10.00;;;;;13.22;99.80;100829.81;6219488;22;45261;-62
2022/12/25 10:06:38;;;;;;;;;12.67;11.00;;;;;13.25;99.67;100810.94;6245202;22;46295;-62
2022/12/25 10:09:20;;;;;;;;;11.67;10.00;;;;;13.32;99.53;100808.72;6245120;22;45210;-62
2022/12/25 10:12:00;;;;;;;;;10.00;10.00;;;;;13.39;99.18;100818.97;6246043;22;45309;-62
2022/12/25 10:14:38;;;;;;;;;11.00;10.00;;;;;13.46;99.00;100814.13;6219544;22;45556;-62
2022/12/25 10:17:18;;;;;;;;;12.00;12.00;;;;;13.49;98.64;100805.94;6218758;22;47858;-63
2022/12/25 10:19:57;;;;;;;;;10.00;10.00;;;;;13.55;98.47;100805.53;6217570;22;45258;-62
2022/12/25 10:22:39;;;;;;;;;11.33;11.00;;;;;13.56;97.69;100817.09;6218311;22;45435;-62
2022/12/25 10:25:17;;;;;;;;;13.00;10.33;;;;;13.59;97.64;100811.53;6218131;22;45438;-62
2022/12/25 10:27:42;;;;;;;;;11.33;10.67;;;;;13.64;97.38;100819.28;6244466;22;46365;-62
2022/12/25 10:30:14;;;;;;;;;15.00;12.00;;;;;13.64;96.88;100813.94;6246336;22;45251;-62
2022/12/25 10:32:40;;;;;;;;;13.67;7.67;;;;;13.65;96.95;100805.81;6245624;22;45753;-62
2022/12/25 10:35:10;;;;;;;;;9.67;8.00;;;;;13.69;96.63;100807.34;6218534;22;45574;-62
2022/12/25 10:37:35;;;;;;;;;9.33;9.33;;;;;13.70;96.74;100806.38;6246300;22;45342;-63
2022/12/25 10:40:01;;;;;;;;;9.67;7.00;;;;;13.71;96.13;100809.91;6243718;22;66204;-63
2022/12/25 10:42:37;;;;;;;;;8.00;8.00;;;;;13.71;95.69;100800.09;6217582;22;52419;-63
2022/12/25 10:45:06;;;;;;;;;8.67;7.00;;;;;13.72;95.85;100798.28;6245323;22;45331;-63
2022/12/25 10:47:36;;;;;;;;;9.00;7.67;;;;;13.82;96.04;100801.19;6244341;22;47051;-63
2022/12/25 10:50:09;;;;;;;;;10.33;9.00;;;;;13.93;95.72;100792.50;6217414;22;45397;-63
2022/12/25 10:52:34;;;;;;;;;10.33;10.33;;;;;14.03;95.17;100801.66;6192977;22;45314;-66
2022/12/25 10:55:10;;;;;;;;;11.67;9.33;;;;;14.06;93.93;100791.59;6218433;22;45798;-65
2022/12/25 10:57:44;;;;;;;;;10.33;9.00;;;;;14.11;94.14;100791.31;6192296;22;45407;-66
2022/12/25 11:00:36;;;;;;;;;12.00;10.00;;;;;14.14;94.36;100806.31;6193330;22;45288;-66
2022/12/25 11:03:01;;;;;;;;;7.67;7.67;;;;;14.11;93.28;100806.53;6242941;22;45509;-65
2022/12/25 11:05:33;;;;;;;;;9.00;9.00;;;;;14.11;93.08;100799.34;6218803;22;45400;-64
2022/12/25 11:08:00;;;;;;;;;7.67;7.00;;;;;14.09;92.71;100816.44;6218518;22;45269;-64
2022/12/25 11:10:35;;;;;;;;;10.00;8.33;;;;;14.06;92.74;100798.78;6219167;22;45230;-64
2022/12/25 11:13:01;;;;;;;;;8.00;6.67;;;;;14.05;92.04;100792.59;6244352;22;45288;-64
2022/12/25 11:15:42;;;;;;;;;6.67;5.67;;;;;14.06;91.66;100782.72;6244925;22;45422;-64
2022/12/25 11:18:23;;;;;;;;;8.33;7.00;;;;;14.06;90.60;100788.09;6219275;22;45272;-63
2022/12/25 11:20:48;;;;;;;;;7.67;7.67;;;;;14.06;91.34;100791.59;6244109;22;45367;-62
2022/12/25 11:23:19;;;;;;;;;8.67;6.67;;;;;14.09;90.29;100809.28;6244915;22;45291;-62
2022/12/25 11:25:56;;;;;;;;;8.00;7.00;;;;;14.07;90.79;100806.69;6243853;22;45459;-62
2022/12/25 11:28:23;;;;;;;;;6.67;6.67;;;;;14.07;90.59;100827.25;6245816;22;45804;-62
2022/12/25 11:30:54;;;;;;;;;6.67;6.00;;;;;14.07;89.88;100828.09;6244448;22;45221;-63
2022/12/25 11:33:24;;;;;;;;;6.67;6.67;;;;;14.07;90.07;100837.94;6217980;22;45194;-64
2022/12/25 11:35:51;;;;;;;;;7.33;7.33;;;;;14.05;89.51;100832.69;6216827;22;45356;-62
2022/12/25 11:38:18;;;;;;;;;10.00;8.33;;;;;14.07;89.57;100830.78;6217622;22;47120;-62
2022/12/25 11:40:47;;;;;;;;;9.00;7.00;;;;;14.10;88.98;100818.16;6243667;22;45221;-62
2022/12/25 11:43:17;;;;;;;;;9.67;9.00;;;;;14.11;89.16;100812.72;6245284;22;45376;-62
2022/12/25 11:45:47;;;;;;;;;8.33;7.33;;;;;14.12;89.05;100809.09;6214537;22;45563;-62
2022/12/25 11:48:20;;;;;;;;;6.00;4.00;;;;;14.16;88.70;100815.94;6217507;22;46713;-62
2022/12/25 11:50:52;;;;;;;;;8.00;6.00;;;;;14.16;88.17;100802.56;6216414;22;45722;-63
2022/12/25 11:53:26;;;;;;;;;6.00;6.00;;;;;14.16;87.59;100807.09;6216655;22;45323;-62
2022/12/25 11:55:55;;;;;;;;;7.00;7.00;;;;;14.15;88.22;100806.19;6216822;22;45174;-62
2022/12/25 11:58:28;;;;;;;;;8.00;8.00;;;;;14.17;88.03;100800.75;6217642;22;45341;-63
2022/12/25 12:00:56;;;;;;;;;14.33;10.00;;;;;14.20;88.21;100796.06;6215717;22;45238;-63
2022/12/25 12:03:42;;;;;;;;;7.67;6.67;;;;;14.24;87.90;100786.03;6218290;22;45415;-63
2022/12/25 12:06:19;;;;;;;;;9.33;7.00;;;;;14.24;86.41;100791.38;6218514;22;45301;-63
2022/12/25 12:08:47;;;;;;;;;8.00;7.00;;;;;14.24;87.46;100783.34;6218542;22;45382;-63
2022/12/25 12:11:17;;;;;;;;;8.00;8.00;;;;;14.27;87.52;100774.28;6218834;22;45312;-63
2022/12/25 12:13:58;;;;;;;;;8.33;8.33;;;;;14.31;86.81;100781.13;6218195;22;45433;-63
2022/12/25 12:16:23;;;;;;;;;9.33;8.67;;;;;14.35;87.19;100801.38;6218652;22;45591;-64
2022/12/25 12:18:49;;;;;;;;;10.00;8.67;;;;;14.38;86.64;100782.44;6216658;22;45548;-63
2022/12/25 12:21:21;;;;;;;;;9.00;7.67;;;;;14.43;86.70;100779.44;6244138;22;65069;-63
2022/12/25 12:23:50;;;;;;;;;7.00;7.00;;;;;14.53;86.35;100775.19;6244416;22;45310;-64
2022/12/25 12:26:24;;;;;;;;;10.00;9.33;;;;;14.57;85.90;100776.72;6246627;22;45225;-63
2022/12/25 12:28:51;;;;;;;;;8.00;7.33;;;;;14.58;85.95;100746.31;6246410;22;45970;-63
2022/12/25 12:31:17;;;;;;;;;7.67;7.67;;;;;14.66;85.65;100749.34;6219704;22;45420;-63
2022/12/25 12:33:48;;;;;;;;;8.67;8.00;;;;;14.69;85.28;100754.50;6218783;22;45299;-62
2022/12/25 12:36:14;;;;;;;;;10.67;8.33;;;;;14.68;84.86;100763.50;6245058;22;45449;-63
2022/12/25 12:38:42;;;;;;;;;10.00;7.00;;;;;14.68;84.29;100770.69;6246307;22;46441;-62
2022/12/25 12:41:10;;;;;;;;;5.67;5.00;;;;;14.66;84.26;100781.47;6235768;22;45799;-62
2022/12/25 12:43:38;;;;;;;;;8.00;8.00;;;;;14.64;83.16;100782.53;6245496;22;45320;-62
2022/12/25 12:46:20;;;;;;;;;4.00;4.00;;;;;14.65;84.28;100774.44;6244975;22;45409;-62
2022/12/25 12:48:47;;;;;;;;;6.00;6.00;;;;;14.66;83.01;100744.00;6243681;22;46093;-63
2022/12/25 12:51:33;;;;;;;;;7.33;7.33;;;;;14.74;83.04;100745.31;6244547;22;45256;-63
2022/12/25 12:54:20;;;;;;;;;5.33;4.67;;;;;14.82;82.88;100748.31;6245683;22;45166;-63
2022/12/25 12:57:05;;;;;;;;;10.33;7.00;;;;;14.91;82.87;100747.66;6245110;22;45280;-61
2022/12/25 12:59:37;;;;;;;;;8.00;7.67;;;;;15.02;82.56;100763.84;6244735;22;46123;-63
2022/12/25 13:02:24;;;;;;;;;6.33;5.33;;;;;15.18;82.15;100771.69;6244561;22;45209;-62
2022/12/25 13:05:15;;;;;;;;;3.67;3.67;;;;;15.31;81.38;100755.59;6245719;22;45292;-62
2022/12/25 13:07:46;;;;;;;;;6.67;6.67;;;;;15.53;79.94;100754.94;6186584;22;45464;-62
2022/12/25 13:10:56;;;;;;;;;10.33;9.00;;;;;15.73;80.68;100743.75;6217870;22;46185;-61
2022/12/25 13:13:29;;;;;;;;;5.00;5.00;;;;;15.81;80.21;100744.94;6153125;23;45274;-61
2022/12/25 13:15:56;;;;;;;;;6.00;6.00;;;;;15.87;79.29;100736.41;6209872;22;45305;-61
2022/12/25 13:18:22;;;;;;;;;9.33;6.00;;;;;15.84;78.79;100742.03;6217077;22;45527;-62
2022/12/25 13:20:58;;;;;;;;;6.67;6.00;;;;;15.88;77.08;100748.03;6244221;22;46066;-62
2022/12/25 13:23:27;;;;;;;;;6.67;6.00;;;;;15.85;79.17;100741.06;6217911;22;45688;-62
2022/12/25 13:25:55;;;;;;;;;7.67;7.00;;;;;15.82;77.30;100752.00;6243068;22;45194;-62
2022/12/25 13:28:30;;;;;;;;;6.00;5.00;;;;;15.75;77.19;100763.25;6246022;22;45368;-62
2022/12/25 13:31:06;;;;;;;;;5.67;5.67;;;;;15.77;77.39;100762.16;6245781;22;45393;-63
2022/12/25 13:33:31;;;;;;;;;5.00;5.00;;;;;15.78;76.73;100752.31;6246507;22;45335;-61
2022/12/25 13:35:57;;;;;;;;;6.33;6.00;;;;;15.78;78.09;100739.75;6241658;22;45355;-61
2022/12/25 13:38:25;;;;;;;;;7.00;7.00;;;;;15.78;76.69;100750.47;6245942;22;45418;-61
2022/12/25 13:43:37;;;;;;;;;9.67;7.67;;;;;15.83;77.80;100747.50;6221045;22;45584;-62
2022/12/25 13:46:03;;;;;;;;;10.00;7.00;;;;;15.86;77.33;100758.00;6218011;22;45324;-62
2022/12/25 13:48:30;;;;;;;;;11.00;8.00;;;;;15.92;77.11;100762.03;6244585;22;45249;-61
2022/12/25 13:50:57;;;;;;;;;7.00;6.33;;;;;15.96;77.04;100753.66;6244834;22;46143;-62
2022/12/25 13:53:22;;;;;;;;;7.00;7.00;;;;;16.00;77.35;100743.59;6245701;22;45315;-61
2022/12/25 13:55:51;;;;;;;;;8.00;8.00;;;;;16.04;76.89;100745.06;6243228;22;61339;-62
2022/12/25 13:58:28;;;;;;;;;10.33;9.00;;;;;16.00;76.86;100748.94;6216531;22;45266;-62
2022/12/25 14:00:59;;;;;;;;;9.33;8.00;;;;;15.93;76.78;100753.91;6243492;22;45273;-62
2022/12/25 14:03:34;;;;;;;;;9.33;6.33;;;;;15.86;77.00;100753.47;6244865;22;45383;-61
2022/12/25 14:06:02;;;;;;;;;8.33;7.00;;;;;15.78;75.92;100763.03;6244884;22;45674;-62
2022/12/25 14:08:32;;;;;;;;;6.33;6.33;;;;;15.74;77.06;100765.06;6218281;22;45310;-62
2022/12/25 14:11:02;;;;;;;;;9.00;8.00;;;;;15.74;77.50;100767.75;6216934;22;46996;-62
2022/12/25 14:13:28;;;;;;;;;6.67;4.67;;;;;15.80;77.75;100772.69;6219060;22;45359;-62
2022/12/25 14:15:54;;;;;;;;;7.00;7.00;;;;;15.81;76.53;100781.59;6215660;22;61571;-62
2022/12/25 14:18:21;;;;;;;;;6.00;6.00;;;;;15.80;76.85;100788.78;6217608;22;45325;-62
2022/12/25 14:21:01;;;;;;;;;7.33;6.00;;;;;15.80;77.17;100788.78;6244936;22;45397;-61
2022/12/25 14:23:39;;;;;;;;;6.67;6.67;;;;;15.79;77.38;100788.91;6242770;22;45313;-62
2022/12/25 14:26:04;;;;;;;;;7.00;7.00;;;;;15.76;77.65;100787.28;6215792;22;45678;-62
2022/12/25 14:28:31;;;;;;;;;9.33;6.67;;;;;15.73;77.94;100798.22;6244509;22;62150;-62
2022/12/25 14:31:01;;;;;;;;;8.67;6.67;;;;;15.66;77.65;100784.41;6243924;22;46074;-62
2022/12/25 14:33:31;;;;;;;;;7.33;7.00;;;;;15.62;77.49;100788.28;6216728;22;54372;-61
2022/12/25 14:35:57;;;;;;;;;5.67;5.67;;;;;15.60;77.95;100787.50;6216459;22;45305;-62
2022/12/25 14:38:26;;;;;;;;;8.00;6.67;;;;;15.57;77.87;100776.16;6243131;22;59952;-62
2022/12/25 14:40:59;;;;;;;;;7.00;6.67;;;;;15.51;77.84;100778.31;6215934;22;46111;-62
2022/12/25 14:43:26;;;;;;;;;5.67;5.67;;;;;15.50;78.15;100765.88;6244078;22;45271;-62
2022/12/25 14:45:59;;;;;;;;;6.67;5.67;;;;;15.52;78.00;100774.66;6243859;22;45285;-62
2022/12/25 14:48:26;;;;;;;;;8.33;8.00;;;;;15.48;78.37;100775.84;6244848;22;45225;-62
2022/12/25 14:51:01;;;;;;;;;10.67;9.67;;;;;15.45;78.35;100783.22;6244641;22;45331;-62
2022/12/25 14:53:46;;;;;;;;;8.33;8.33;;;;;15.42;78.79;100788.81;6245106;22;45242;-61
2022/12/25 14:56:15;;;;;;;;;6.67;6.00;;;;;15.38;78.68;100793.53;6216282;22;45301;-62
2022/12/25 14:58:42;;;;;;;;;9.33;9.33;;;;;15.32;79.05;100794.00;6216488;22;45305;-62
2022/12/25 15:01:20;;;;;;;;;9.00;9.00;;;;;15.30;79.17;100799.44;6243231;22;46279;-62
2022/12/25 15:03:47;;;;;;;;;7.00;6.67;;;;;15.27;79.08;100791.63;6217748;22;45640;-62
2022/12/25 15:06:21;;;;;;;;;8.33;8.33;;;;;15.22;79.76;100786.56;6217877;22;45317;-62
2022/12/25 15:09:01;;;;;;;;;6.00;6.00;;;;;15.20;79.47;100779.59;6218191;22;45182;-61
2022/12/25 15:11:27;;;;;;;;;6.33;6.33;;;;;15.19;79.69;100778.75;6245164;22;45333;-61
2022/12/25 15:13:52;;;;;;;;;5.00;3.00;;;;;15.16;79.82;100791.50;6245979;22;45367;-61
2022/12/25 15:16:23;;;;;;;;;8.00;7.00;;;;;15.13;79.91;100789.88;6245832;22;45381;-61
2022/12/25 15:18:49;;;;;;;;;8.00;8.00;;;;;15.10;79.87;100789.28;6245358;22;45298;-62
2022/12/25 15:21:15;;;;;;;;;6.00;6.00;;;;;15.10;79.97;100791.94;6244503;22;62543;-62
2022/12/25 15:23:41;;;;;;;;;9.33;7.67;;;;;15.10;80.44;100789.28;6244655;22;45381;-62
2022/12/25 15:26:11;;;;;;;;;8.67;6.00;;;;;15.08;80.18;100792.03;6244174;22;59003;-62
2022/12/25 15:28:36;;;;;;;;;7.67;7.67;;;;;15.03;80.65;100787.00;6217742;22;45423;-62
2022/12/25 15:31:02;;;;;;;;;10.00;7.67;;;;;14.99;80.67;100798.03;6242580;22;45237;-63
2022/12/25 15:33:27;;;;;;;;;7.33;7.00;;;;;14.98;81.16;100798.97;6243453;22;62566;-62
2022/12/25 15:35:52;;;;;;;;;7.00;7.00;;;;;14.99;81.25;100792.66;6244920;22;60094;-62
2022/12/25 15:38:18;;;;;;;;;8.00;6.00;;;;;14.99;81.02;100792.66;6246466;22;45300;-62
2022/12/25 15:40:43;;;;;;;;;9.33;8.33;;;;;14.98;81.33;100777.56;6244254;22;64715;-63
2022/12/25 15:43:13;;;;;;;;;9.00;7.00;;;;;14.97;81.58;100786.56;6243322;22;60352;-63
2022/12/25 15:45:38;;;;;;;;;9.33;9.00;;;;;14.90;81.75;100788.81;6244433;22;45508;-62
2022/12/25 15:48:03;;;;;;;;;6.00;6.00;;;;;14.88;81.93;100785.38;6244203;22;61906;-62
2022/12/25 15:50:29;;;;;;;;;8.67;7.33;;;;;14.86;81.58;100781.94;6244554;22;60729;-63
2022/12/25 15:52:54;;;;;;;;;8.67;8.67;;;;;14.83;82.00;100776.81;6244788;22;45308;-62
2022/12/25 15:55:19;;;;;;;;;10.00;9.00;;;;;14.78;82.13;100785.13;6245694;22;45839;-62
2022/12/25 15:57:47;;;;;;;;;8.67;8.00;;;;;14.75;81.82;100781.84;6244037;22;45169;-63
2022/12/25 16:00:16;;;;;;;;;9.33;9.33;;;;;14.67;82.56;100796.56;6245087;22;46142;-63
2022/12/25 16:02:41;;;;;;;;;8.00;8.00;;;;;14.62;82.47;100793.31;6242759;22;45356;-63
2022/12/25 16:05:07;;;;;;;;;4.33;4.33;;;;;14.59;82.97;100800.69;6245221;22;45276;-63
2022/12/25 16:07:32;;;;;;;;;7.00;7.00;;;;;14.56;82.88;100793.72;6216779;22;45241;-61
2022/12/25 16:09:58;;;;;;;;;9.00;7.33;;;;;14.53;83.44;100801.97;6192174;22;46339;-62
2022/12/25 16:12:23;;;;;;;;;10.00;7.00;;;;;14.49;83.30;100805.81;6218239;22;45301;-62
2022/12/25 16:14:49;;;;;;;;;6.67;6.67;;;;;14.46;83.64;100814.91;6244840;22;45217;-62
2022/12/25 16:17:14;;;;;;;;;11.33;9.67;;;;;14.45;84.14;100831.06;6245132;22;60459;-62
2022/12/25 16:19:41;;;;;;;;;8.33;6.67;;;;;14.42;84.48;100826.78;6245576;22;46415;-62
2022/12/25 16:22:16;;;;;;;;;10.67;7.67;;;;;14.37;84.09;100842.28;6243624;22;45296;-61
2022/12/25 16:24:41;;;;;;;;;7.33;6.33;;;;;14.30;84.69;100848.97;6218061;22;45299;-62
2022/12/25 16:27:06;;;;;;;;;7.00;7.00;;;;;14.23;84.67;100848.50;6245441;22;45489;-61
2022/12/25 16:29:32;;;;;;;;;11.00;9.67;;;;;14.20;85.14;100860.25;6244791;22;60566;-61
2022/12/25 16:31:57;;;;;;;;;8.00;8.00;;;;;14.15;85.91;100856.19;6242162;22;62116;-62
2022/12/25 16:34:22;;;;;;;;;8.00;7.00;;;;;14.13;86.24;100868.78;6243340;22;45288;-62
2022/12/25 16:36:48;;;;;;;;;8.67;8.67;;;;;14.12;86.52;100867.06;6242892;22;58657;-61
2022/12/25 16:39:13;;;;;;;;;9.33;8.00;;;;;14.13;86.30;100869.66;6243580;22;64930;-62
2022/12/25 16:41:38;;;;;;;;;11.67;9.00;;;;;14.13;86.24;100868.78;6241780;22;58755;-61
2022/12/25 16:44:08;;;;;;;;;13.67;12.33;;;;;14.16;86.62;100864.09;6242203;22;58421;-62
2022/12/25 16:46:35;;;;;;;;;11.00;10.00;;;;;14.21;86.68;100866.50;6236946;22;45321;-61
2022/12/25 16:49:01;;;;;;;;;14.00;11.67;;;;;14.27;87.13;100870.56;6241742;22;47104;-61
2022/12/25 16:51:26;;;;;;;;;12.00;10.00;;;;;14.32;86.84;100863.13;6244667;22;45301;-62
2022/12/25 16:53:53;;;;;;;;;9.67;8.00;;;;;14.37;86.70;100859.16;6243853;22;59684;-61
2022/12/25 16:56:27;;;;;;;;;12.67;8.67;;;;;14.42;86.25;100864.25;6244324;22;45335;-61
2022/12/25 16:58:53;;;;;;;;;8.00;8.00;;;;;14.46;86.39;100859.56;6243740;22;47116;-61
2022/12/25 17:01:21;;;;;;;;;9.00;8.67;;;;;14.47;86.20;100847.88;6239670;22;45635;-61
2022/12/25 17:03:47;;;;;;;;;8.33;7.67;;;;;14.47;86.25;100845.19;6243898;22;45282;-61
2022/12/25 17:06:17;;;;;;;;;12.00;10.67;;;;;14.50;86.61;100847.69;6243717;22;45645;-61
2022/12/25 17:08:42;;;;;;;;;4.00;4.00;;;;;14.51;86.51;100844.03;6241516;22;46145;-62
2022/12/25 17:11:08;;;;;;;;;9.00;9.00;;;;;14.53;86.54;100840.28;6240656;22;45424;-62
2022/12/25 17:13:34;;;;;;;;;8.33;8.33;;;;;14.51;86.49;100836.88;6241205;22;45747;-61
2022/12/25 17:15:59;;;;;;;;;10.67;9.67;;;;;14.52;86.28;100830.56;6238392;22;45445;-62
2022/12/25 17:18:25;;;;;;;;;10.00;8.67;;;;;14.52;86.37;100849.31;6241300;22;57661;-64
2022/12/25 17:20:52;;;;;;;;;11.00;8.00;;;;;14.53;86.34;100847.47;6215698;22;45296;-64
2022/12/25 17:23:19;;;;;;;;;10.00;9.67;;;;;14.53;86.79;100852.81;6242244;22;45262;-64
2022/12/25 17:25:44;;;;;;;;;10.67;9.00;;;;;14.50;86.74;100855.72;6244344;22;45205;-63
2022/12/25 17:28:10;;;;;;;;;9.00;7.67;;;;;14.48;87.02;100853.09;6245041;22;45233;-64
2022/12/25 17:30:35;;;;;;;;;9.00;7.00;;;;;14.48;86.99;100855.78;6244038;22;45345;-64
2022/12/25 17:33:01;;;;;;;;;8.33;8.33;;;;;14.47;87.06;100859.44;6244478;22;56930;-64
2022/12/25 17:35:26;;;;;;;;;14.00;10.33;;;;;14.49;87.29;100856.66;6243217;22;62770;-64
2022/12/25 17:37:51;;;;;;;;;7.00;7.00;;;;;14.49;86.80;100862.00;6241536;22;66041;-64
2022/12/25 17:40:17;;;;;;;;;9.67;8.33;;;;;14.50;87.17;100861.91;6242923;22;57116;-64
2022/12/25 17:42:42;;;;;;;;;12.33;9.33;;;;;14.52;86.82;100857.31;6244723;22;45289;-64
2022/12/25 17:45:08;;;;;;;;;9.67;9.00;;;;;14.53;87.58;100860.84;6215730;22;45621;-63
2022/12/25 17:47:33;;;;;;;;;0.00;0.00;;;;;14.54;86.83;100858.06;6243721;22;46022;-63
2022/12/25 17:49:59;;;;;;;;;10.00;9.67;;;;;14.55;86.89;100867.81;6244899;22;45489;-63
2022/12/25 17:52:24;;;;;;;;;7.00;7.00;;;;;14.52;87.15;100857.31;6244681;22;45621;-62
2022/12/25 17:54:50;;;;;;;;;8.33;8.33;;;;;14.51;87.39;100866.31;6218418;22;45338;-62
2022/12/25 17:57:15;;;;;;;;;10.00;7.00;;;;;14.52;86.95;100869.84;6242272;22;47515;-63
2022/12/25 17:59:40;;;;;;;;;8.50;6.50;;;;;14.51;87.36;100862.75;6243456;22;62899;-63
2022/12/25 18:02:07;;;;;;;;;7.00;7.00;;;;;14.52;86.79;100869.84;6245823;22;45214;-63
2022/12/25 18:04:33;;;;;;;;;10.00;9.00;;;;;14.52;87.01;100864.47;6217180;22;45367;-64
2022/12/25 18:06:58;;;;;;;;;8.00;8.00;;;;;14.55;87.13;100865.16;6244046;22;45510;-63
2022/12/25 18:09:24;;;;;;;;;10.67;9.00;;;;;14.53;87.08;100858.16;6218927;22;64349;-63
2022/12/25 18:11:49;;;;;;;;;7.33;7.00;;;;;14.54;87.10;100867.94;6245202;22;45242;-64
2022/12/25 18:14:15;;;;;;;;;5.00;5.00;;;;;14.54;86.69;100875.97;6244875;22;45612;-64
2022/12/25 18:16:43;;;;;;;;;10.00;8.00;;;;;14.53;86.66;100874.22;6218821;22;46091;-63
2022/12/25 18:19:10;;;;;;;;;10.67;9.33;;;;;14.51;86.77;100868.09;6246233;22;45297;-65
2022/12/25 18:21:35;;;;;;;;;10.67;9.33;;;;;14.48;86.46;100871.00;6244434;22;45344;-63
2022/12/25 18:24:02;;;;;;;;;10.00;8.33;;;;;14.42;87.12;100882.09;6243129;22;60818;-63
2022/12/25 18:26:28;;;;;;;;;12.00;10.00;;;;;14.34;86.74;100880.78;6216977;22;47303;-63